sensor_id;sensor_type;location;lat;lon;timestamp;temperature;humidity
73780;SHT30;62093;37.614;15.072;2024-02-26T00:01:40;16.95;60.55
73780;SHT30;62093;37.614;15.072;2024-02-26T00:04:06;16.91;60.27
73780;SHT30;62093;37.614;15.072;2024-02-26T00:06:32;16.94;60.59
73780;SHT30;62093;37.614;15.072;2024-02-26T00:08:58;16.91;60.56
73780;SHT30;62093;37.614;15.072;2024-02-26T00:11:24;16.94;60.71
73780;SHT30;62093;37.614;15.072;2024-02-26T00:13:50;16.91;60.43
73780;SHT30;62093;37.614;15.072;2024-02-26T00:16:16;16.91;60.67
73780;SHT30;62093;37.614;15.072;2024-02-26T00:18:42;16.88;60.39
73780;SHT30;62093;37.614;15.072;2024-02-26T00:21:08;16.87;60.69
73780;SHT30;62093;37.614;15.072;2024-02-26T00:23:34;16.85;60.63
73780;SHT30;62093;37.614;15.072;2024-02-26T00:26:00;16.90;60.49
73780;SHT30;62093;37.614;15.072;2024-02-26T00:28:26;16.91;60.58
73780;SHT30;62093;37.614;15.072;2024-02-26T00:30:54;16.88;60.86
73780;SHT30;62093;37.614;15.072;2024-02-26T00:33:22;16.83;60.08
73780;SHT30;62093;37.614;15.072;2024-02-26T00:35:48;16.84;60.91
73780;SHT30;62093;37.614;15.072;2024-02-26T00:38:15;16.81;60.71
73780;SHT30;62093;37.614;15.072;2024-02-26T00:40:41;16.84;60.90
73780;SHT30;62093;37.614;15.072;2024-02-26T00:43:07;16.85;61.01
73780;SHT30;62093;37.614;15.072;2024-02-26T00:45:33;16.84;60.61
73780;SHT30;62093;37.614;15.072;2024-02-26T00:47:59;16.87;60.59
73780;SHT30;62093;37.614;15.072;2024-02-26T00:50:31;16.83;60.66
73780;SHT30;62093;37.614;15.072;2024-02-26T00:52:57;16.85;60.68
73780;SHT30;62093;37.614;15.072;2024-02-26T00:55:23;16.84;60.43
73780;SHT30;62093;37.614;15.072;2024-02-26T00:57:49;16.81;60.80
73780;SHT30;62093;37.614;15.072;2024-02-26T01:00:16;16.84;60.98
73780;SHT30;62093;37.614;15.072;2024-02-26T01:02:42;16.85;60.73
73780;SHT30;62093;37.614;15.072;2024-02-26T01:05:08;16.83;60.91
73780;SHT30;62093;37.614;15.072;2024-02-26T01:07:38;16.84;60.29
73780;SHT30;62093;37.614;15.072;2024-02-26T01:10:05;16.79;60.51
73780;SHT30;62093;37.614;15.072;2024-02-26T01:12:33;16.77;60.38
73780;SHT30;62093;37.614;15.072;2024-02-26T01:15:00;16.80;60.41
73780;SHT30;62093;37.614;15.072;2024-02-26T01:17:26;16.80;60.88
73780;SHT30;62093;37.614;15.072;2024-02-26T01:19:52;16.80;60.16
73780;SHT30;62093;37.614;15.072;2024-02-26T01:22:19;16.77;60.63
73780;SHT30;62093;37.614;15.072;2024-02-26T01:24:46;16.74;60.43
73780;SHT30;62093;37.614;15.072;2024-02-26T01:27:12;16.80;60.72
73780;SHT30;62093;37.614;15.072;2024-02-26T01:29:40;16.77;60.44
73780;SHT30;62093;37.614;15.072;2024-02-26T01:32:06;16.74;60.49
73780;SHT30;62093;37.614;15.072;2024-02-26T01:34:32;16.76;60.45
73780;SHT30;62093;37.614;15.072;2024-02-26T01:36:58;16.73;60.85
73780;SHT30;62093;37.614;15.072;2024-02-26T01:39:24;16.74;60.12
73780;SHT30;62093;37.614;15.072;2024-02-26T01:41:50;16.74;60.78
73780;SHT30;62093;37.614;15.072;2024-02-26T01:44:16;16.74;60.55
73780;SHT30;62093;37.614;15.072;2024-02-26T01:46:42;16.74;60.57
73780;SHT30;62093;37.614;15.072;2024-02-26T01:49:11;16.73;60.07
73780;SHT30;62093;37.614;15.072;2024-02-26T01:51:39;16.73;60.30
73780;SHT30;62093;37.614;15.072;2024-02-26T01:54:07;16.74;60.66
73780;SHT30;62093;37.614;15.072;2024-02-26T01:56:35;16.72;60.46
73780;SHT30;62093;37.614;15.072;2024-02-26T01:59:02;16.66;60.51
73780;SHT30;62093;37.614;15.072;2024-02-26T02:01:30;16.66;60.53
73780;SHT30;62093;37.614;15.072;2024-02-26T02:03:58;16.69;60.16
73780;SHT30;62093;37.614;15.072;2024-02-26T02:06:26;16.70;60.35
73780;SHT30;62093;37.614;15.072;2024-02-26T02:08:55;16.67;60.35
73780;SHT30;62093;37.614;15.072;2024-02-26T02:11:21;16.63;60.20
73780;SHT30;62093;37.614;15.072;2024-02-26T02:13:47;16.67;60.29
73780;SHT30;62093;37.614;15.072;2024-02-26T02:16:13;16.69;60.49
73780;SHT30;62093;37.614;15.072;2024-02-26T02:18:40;16.64;60.61
73780;SHT30;62093;37.614;15.072;2024-02-26T02:21:06;16.63;60.32
73780;SHT30;62093;37.614;15.072;2024-02-26T02:23:32;16.62;60.43
73780;SHT30;62093;37.614;15.072;2024-02-26T02:25:58;16.60;60.26
73780;SHT30;62093;37.614;15.072;2024-02-26T02:28:26;16.62;60.22
73780;SHT30;62093;37.614;15.072;2024-02-26T02:30:53;16.63;60.31
73780;SHT30;62093;37.614;15.072;2024-02-26T02:33:20;16.62;60.01
73780;SHT30;62093;37.614;15.072;2024-02-26T02:35:46;16.62;60.26
73780;SHT30;62093;37.614;15.072;2024-02-26T02:38:12;16.60;60.59
73780;SHT30;62093;37.614;15.072;2024-02-26T02:40:38;16.57;60.04
73780;SHT30;62093;37.614;15.072;2024-02-26T02:43:04;16.56;60.57
73780;SHT30;62093;37.614;15.072;2024-02-26T02:45:30;16.55;60.85
73780;SHT30;62093;37.614;15.072;2024-02-26T02:47:57;16.53;60.34
73780;SHT30;62093;37.614;15.072;2024-02-26T02:50:23;16.53;60.28
73780;SHT30;62093;37.614;15.072;2024-02-26T02:52:49;16.57;60.63
73780;SHT30;62093;37.614;15.072;2024-02-26T02:55:16;16.55;60.35
73780;SHT30;62093;37.614;15.072;2024-02-26T02:57:42;16.55;60.47
73780;SHT30;62093;37.614;15.072;2024-02-26T03:00:09;16.52;60.44
73780;SHT30;62093;37.614;15.072;2024-02-26T03:02:35;16.53;60.28
73780;SHT30;62093;37.614;15.072;2024-02-26T03:05:05;16.53;60.63
73780;SHT30;62093;37.614;15.072;2024-02-26T03:07:31;16.51;59.90
73780;SHT30;62093;37.614;15.072;2024-02-26T03:09:57;16.55;60.87
73780;SHT30;62093;37.614;15.072;2024-02-26T03:12:24;16.52;60.68
73780;SHT30;62093;37.614;15.072;2024-02-26T03:14:50;16.52;60.64
73780;SHT30;62093;37.614;15.072;2024-02-26T03:17:17;16.45;60.44
73780;SHT30;62093;37.614;15.072;2024-02-26T03:19:44;16.48;60.49
73780;SHT30;62093;37.614;15.072;2024-02-26T03:22:13;16.48;60.74
73780;SHT30;62093;37.614;15.072;2024-02-26T03:24:39;16.48;60.85
73780;SHT30;62093;37.614;15.072;2024-02-26T03:27:05;16.48;60.68
73780;SHT30;62093;37.614;15.072;2024-02-26T03:29:38;16.48;60.55
73780;SHT30;62093;37.614;15.072;2024-02-26T03:32:05;16.49;60.40
73780;SHT30;62093;37.614;15.072;2024-02-26T03:34:32;16.48;60.40
73780;SHT30;62093;37.614;15.072;2024-02-26T03:37:00;16.43;60.35
73780;SHT30;62093;37.614;15.072;2024-02-26T03:39:26;16.46;60.74
73780;SHT30;62093;37.614;15.072;2024-02-26T03:41:52;16.46;60.32
73780;SHT30;62093;37.614;15.072;2024-02-26T03:44:18;16.45;60.73
73780;SHT30;62093;37.614;15.072;2024-02-26T03:46:44;16.39;60.24
73780;SHT30;62093;37.614;15.072;2024-02-26T03:49:10;16.38;60.34
73780;SHT30;62093;37.614;15.072;2024-02-26T03:51:36;16.43;60.33
73780;SHT30;62093;37.614;15.072;2024-02-26T03:54:03;16.38;60.75
73780;SHT30;62093;37.614;15.072;2024-02-26T03:56:29;16.43;60.82
73780;SHT30;62093;37.614;15.072;2024-02-26T03:58:55;16.42;60.59
73780;SHT30;62093;37.614;15.072;2024-02-26T04:01:21;16.39;60.50
73780;SHT30;62093;37.614;15.072;2024-02-26T04:03:47;16.42;60.49
73780;SHT30;62093;37.614;15.072;2024-02-26T04:06:13;16.36;60.62
73780;SHT30;62093;37.614;15.072;2024-02-26T04:08:45;16.36;60.77
73780;SHT30;62093;37.614;15.072;2024-02-26T04:11:11;16.32;60.63
73780;SHT30;62093;37.614;15.072;2024-02-26T04:13:37;16.30;60.59
73780;SHT30;62093;37.614;15.072;2024-02-26T04:16:06;16.36;60.37
73780;SHT30;62093;37.614;15.072;2024-02-26T04:18:32;16.38;61.03
73780;SHT30;62093;37.614;15.072;2024-02-26T04:20:58;16.39;60.25
73780;SHT30;62093;37.614;15.072;2024-02-26T04:23:24;16.46;60.66
73780;SHT30;62093;37.614;15.072;2024-02-26T04:25:50;16.41;60.68
73780;SHT30;62093;37.614;15.072;2024-02-26T04:28:19;16.41;60.78
73780;SHT30;62093;37.614;15.072;2024-02-26T04:30:47;16.39;60.73
73780;SHT30;62093;37.614;15.072;2024-02-26T04:33:14;16.35;60.67
73780;SHT30;62093;37.614;15.072;2024-02-26T04:35:40;16.41;60.73
73780;SHT30;62093;37.614;15.072;2024-02-26T04:38:06;16.38;60.83
73780;SHT30;62093;37.614;15.072;2024-02-26T04:40:32;16.36;60.82
73780;SHT30;62093;37.614;15.072;2024-02-26T04:42:57;16.38;61.06
73780;SHT30;62093;37.614;15.072;2024-02-26T04:45:23;16.33;60.44
73780;SHT30;62093;37.614;15.072;2024-02-26T04:47:49;16.35;60.91
73780;SHT30;62093;37.614;15.072;2024-02-26T04:50:15;16.35;61.09
73780;SHT30;62093;37.614;15.072;2024-02-26T04:52:42;16.35;60.62
73780;SHT30;62093;37.614;15.072;2024-02-26T04:55:08;16.33;60.31
73780;SHT30;62093;37.614;15.072;2024-02-26T04:57:34;16.35;60.63
73780;SHT30;62093;37.614;15.072;2024-02-26T05:00:00;16.35;60.46
73780;SHT30;62093;37.614;15.072;2024-02-26T05:02:26;16.35;60.67
73780;SHT30;62093;37.614;15.072;2024-02-26T05:04:53;16.36;60.62
73780;SHT30;62093;37.614;15.072;2024-02-26T05:07:19;16.35;60.56
73780;SHT30;62093;37.614;15.072;2024-02-26T05:09:45;16.30;60.60
73780;SHT30;62093;37.614;15.072;2024-02-26T05:12:12;16.35;60.48
73780;SHT30;62093;37.614;15.072;2024-02-26T05:14:37;16.35;60.44
73780;SHT30;62093;37.614;15.072;2024-02-26T05:17:03;16.32;60.99
73780;SHT30;62093;37.614;15.072;2024-02-26T05:19:29;16.35;61.09
73780;SHT30;62093;37.614;15.072;2024-02-26T05:21:55;16.32;60.83
73780;SHT30;62093;37.614;15.072;2024-02-26T05:24:22;16.30;60.85
73780;SHT30;62093;37.614;15.072;2024-02-26T05:26:48;16.29;61.16
73780;SHT30;62093;37.614;15.072;2024-02-26T05:29:14;16.28;60.84
73780;SHT30;62093;37.614;15.072;2024-02-26T05:31:43;16.29;60.86
73780;SHT30;62093;37.614;15.072;2024-02-26T05:34:09;16.29;61.08
73780;SHT30;62093;37.614;15.072;2024-02-26T05:36:35;16.28;61.04
73780;SHT30;62093;37.614;15.072;2024-02-26T05:39:01;16.26;60.91
73780;SHT30;62093;37.614;15.072;2024-02-26T05:41:29;16.26;61.30
73780;SHT30;62093;37.614;15.072;2024-02-26T05:43:55;16.23;60.91
73780;SHT30;62093;37.614;15.072;2024-02-26T05:46:22;16.21;60.78
73780;SHT30;62093;37.614;15.072;2024-02-26T05:48:51;16.19;60.88
73780;SHT30;62093;37.614;15.072;2024-02-26T05:51:18;16.18;61.02
73780;SHT30;62093;37.614;15.072;2024-02-26T05:53:44;16.18;61.14
73780;SHT30;62093;37.614;15.072;2024-02-26T05:56:10;16.19;60.98
73780;SHT30;62093;37.614;15.072;2024-02-26T05:58:36;16.21;60.98
73780;SHT30;62093;37.614;15.072;2024-02-26T06:01:02;16.16;60.98
73780;SHT30;62093;37.614;15.072;2024-02-26T06:03:29;16.19;61.25
73780;SHT30;62093;37.614;15.072;2024-02-26T06:05:55;16.21;61.04
73780;SHT30;62093;37.614;15.072;2024-02-26T06:08:21;16.19;61.28
73780;SHT30;62093;37.614;15.072;2024-02-26T06:10:47;16.21;60.97
73780;SHT30;62093;37.614;15.072;2024-02-26T06:13:14;16.18;61.43
73780;SHT30;62093;37.614;15.072;2024-02-26T06:15:40;16.18;61.08
73780;SHT30;62093;37.614;15.072;2024-02-26T06:18:06;16.18;61.22
73780;SHT30;62093;37.614;15.072;2024-02-26T06:20:32;16.19;61.22
73780;SHT30;62093;37.614;15.072;2024-02-26T06:22:58;16.18;61.31
73780;SHT30;62093;37.614;15.072;2024-02-26T06:25:24;16.22;61.21
73780;SHT30;62093;37.614;15.072;2024-02-26T06:27:51;16.19;60.97
73780;SHT30;62093;37.614;15.072;2024-02-26T06:30:17;16.19;61.24
73780;SHT30;62093;37.614;15.072;2024-02-26T06:32:43;16.19;61.01
73780;SHT30;62093;37.614;15.072;2024-02-26T06:35:09;16.23;61.34
73780;SHT30;62093;37.614;15.072;2024-02-26T06:37:37;16.21;61.32
73780;SHT30;62093;37.614;15.072;2024-02-26T06:40:03;16.22;61.33
73780;SHT30;62093;37.614;15.072;2024-02-26T06:42:34;16.25;61.57
73780;SHT30;62093;37.614;15.072;2024-02-26T06:45:01;16.22;61.28
73780;SHT30;62093;37.614;15.072;2024-02-26T06:47:27;16.28;61.23
73780;SHT30;62093;37.614;15.072;2024-02-26T06:49:53;16.26;61.32
73780;SHT30;62093;37.614;15.072;2024-02-26T06:52:20;16.26;61.37
73780;SHT30;62093;37.614;15.072;2024-02-26T06:54:46;16.25;61.22
73780;SHT30;62093;37.614;15.072;2024-02-26T06:57:14;16.29;61.29
73780;SHT30;62093;37.614;15.072;2024-02-26T06:59:40;16.29;61.05
73780;SHT30;62093;37.614;15.072;2024-02-26T07:02:06;16.32;61.38
73780;SHT30;62093;37.614;15.072;2024-02-26T07:04:32;16.32;61.19
73780;SHT30;62093;37.614;15.072;2024-02-26T07:06:59;16.33;61.14
73780;SHT30;62093;37.614;15.072;2024-02-26T07:09:25;16.35;61.36
73780;SHT30;62093;37.614;15.072;2024-02-26T07:11:51;16.33;61.28
73780;SHT30;62093;37.614;15.072;2024-02-26T07:14:17;16.35;61.41
73780;SHT30;62093;37.614;15.072;2024-02-26T07:16:43;16.35;60.98
73780;SHT30;62093;37.614;15.072;2024-02-26T07:19:09;16.38;61.30
73780;SHT30;62093;37.614;15.072;2024-02-26T07:21:35;16.36;61.06
73780;SHT30;62093;37.614;15.072;2024-02-26T07:24:02;16.36;61.17
73780;SHT30;62093;37.614;15.072;2024-02-26T07:26:28;16.38;61.19
73780;SHT30;62093;37.614;15.072;2024-02-26T07:28:56;16.42;61.25
73780;SHT30;62093;37.614;15.072;2024-02-26T07:31:22;16.43;61.13
73780;SHT30;62093;37.614;15.072;2024-02-26T07:33:48;16.43;61.03
73780;SHT30;62093;37.614;15.072;2024-02-26T07:36:14;16.41;61.06
73780;SHT30;62093;37.614;15.072;2024-02-26T07:38:40;16.42;61.03
73780;SHT30;62093;37.614;15.072;2024-02-26T07:41:06;16.43;60.85
73780;SHT30;62093;37.614;15.072;2024-02-26T07:43:32;16.45;60.94
73780;SHT30;62093;37.614;15.072;2024-02-26T07:45:58;16.49;60.81
73780;SHT30;62093;37.614;15.072;2024-02-26T07:48:24;16.46;60.82
73780;SHT30;62093;37.614;15.072;2024-02-26T07:50:50;16.45;61.04
73780;SHT30;62093;37.614;15.072;2024-02-26T07:53:16;16.49;60.96
73780;SHT30;62093;37.614;15.072;2024-02-26T07:55:42;16.51;60.87
73780;SHT30;62093;37.614;15.072;2024-02-26T07:58:08;16.55;60.66
73780;SHT30;62093;37.614;15.072;2024-02-26T08:00:34;16.52;60.53
73780;SHT30;62093;37.614;15.072;2024-02-26T08:03:00;16.56;60.56
73780;SHT30;62093;37.614;15.072;2024-02-26T08:05:26;16.55;60.35
73780;SHT30;62093;37.614;15.072;2024-02-26T08:07:52;16.55;60.43
73780;SHT30;62093;37.614;15.072;2024-02-26T08:10:18;16.59;60.63
73780;SHT30;62093;37.614;15.072;2024-02-26T08:12:44;16.57;60.37
73780;SHT30;62093;37.614;15.072;2024-02-26T08:15:11;16.60;60.55
73780;SHT30;62093;37.614;15.072;2024-02-26T08:17:37;16.60;60.13
73780;SHT30;62093;37.614;15.072;2024-02-26T08:20:04;16.62;60.23
73780;SHT30;62093;37.614;15.072;2024-02-26T08:22:30;16.60;60.38
73780;SHT30;62093;37.614;15.072;2024-02-26T08:24:56;16.63;60.46
73780;SHT30;62093;37.614;15.072;2024-02-26T08:27:22;16.64;60.10
73780;SHT30;62093;37.614;15.072;2024-02-26T08:29:48;16.63;60.33
73780;SHT30;62093;37.614;15.072;2024-02-26T08:32:14;16.64;60.21
73780;SHT30;62093;37.614;15.072;2024-02-26T08:34:40;16.64;60.30
73780;SHT30;62093;37.614;15.072;2024-02-26T08:37:06;16.66;59.85
73780;SHT30;62093;37.614;15.072;2024-02-26T08:39:32;16.69;59.71
73780;SHT30;62093;37.614;15.072;2024-02-26T08:41:58;16.69;59.88
73780;SHT30;62093;37.614;15.072;2024-02-26T08:44:24;16.66;59.73
73780;SHT30;62093;37.614;15.072;2024-02-26T08:46:51;16.69;59.90
73780;SHT30;62093;37.614;15.072;2024-02-26T08:49:17;16.70;59.82
73780;SHT30;62093;37.614;15.072;2024-02-26T08:51:43;16.70;59.89
73780;SHT30;62093;37.614;15.072;2024-02-26T08:54:12;16.70;59.84
73780;SHT30;62093;37.614;15.072;2024-02-26T08:56:38;16.67;59.70
73780;SHT30;62093;37.614;15.072;2024-02-26T08:59:04;16.69;59.75
73780;SHT30;62093;37.614;15.072;2024-02-26T09:01:31;16.70;59.84
73780;SHT30;62093;37.614;15.072;2024-02-26T09:03:58;16.72;59.98
73780;SHT30;62093;37.614;15.072;2024-02-26T09:06:24;16.79;59.90
73780;SHT30;62093;37.614;15.072;2024-02-26T09:08:49;16.77;59.77
73780;SHT30;62093;37.614;15.072;2024-02-26T09:11:16;16.76;60.08
73780;SHT30;62093;37.614;15.072;2024-02-26T09:13:42;16.76;60.16
73780;SHT30;62093;37.614;15.072;2024-02-26T09:16:08;16.74;60.35
73780;SHT30;62093;37.614;15.072;2024-02-26T09:18:34;16.76;60.26
73780;SHT30;62093;37.614;15.072;2024-02-26T09:21:04;16.74;59.98
73780;SHT30;62093;37.614;15.072;2024-02-26T09:23:30;16.77;60.39
73780;SHT30;62093;37.614;15.072;2024-02-26T09:25:56;16.74;59.34
73780;SHT30;62093;37.614;15.072;2024-02-26T09:28:23;16.79;60.33
73780;SHT30;62093;37.614;15.072;2024-02-26T09:30:49;16.79;60.43
73780;SHT30;62093;37.614;15.072;2024-02-26T09:33:16;16.79;60.24
73780;SHT30;62093;37.614;15.072;2024-02-26T09:35:41;16.83;59.89
73780;SHT30;62093;37.614;15.072;2024-02-26T09:38:08;16.80;60.06
73780;SHT30;62093;37.614;15.072;2024-02-26T09:40:33;16.79;59.79
73780;SHT30;62093;37.614;15.072;2024-02-26T09:43:00;16.81;59.76
73780;SHT30;62093;37.614;15.072;2024-02-26T09:45:30;16.83;60.02
73780;SHT30;62093;37.614;15.072;2024-02-26T09:47:58;16.83;59.88
73780;SHT30;62093;37.614;15.072;2024-02-26T09:50:24;16.87;59.67
73780;SHT30;62093;37.614;15.072;2024-02-26T09:52:51;16.88;59.92
73780;SHT30;62093;37.614;15.072;2024-02-26T09:55:18;16.88;59.88
73780;SHT30;62093;37.614;15.072;2024-02-26T09:57:46;16.90;59.88
73780;SHT30;62093;37.614;15.072;2024-02-26T10:00:17;16.90;59.55
73780;SHT30;62093;37.614;15.072;2024-02-26T10:02:48;16.90;60.02
73780;SHT30;62093;37.614;15.072;2024-02-26T10:05:18;16.85;59.82
73780;SHT30;62093;37.614;15.072;2024-02-26T10:07:47;16.85;60.05
73780;SHT30;62093;37.614;15.072;2024-02-26T10:10:14;16.87;59.66
73780;SHT30;62093;37.614;15.072;2024-02-26T10:12:40;16.84;59.35
73780;SHT30;62093;37.614;15.072;2024-02-26T10:15:06;16.87;59.72
73780;SHT30;62093;37.614;15.072;2024-02-26T10:17:33;16.87;59.26
73780;SHT30;62093;37.614;15.072;2024-02-26T10:20:18;16.90;59.72
73780;SHT30;62093;37.614;15.072;2024-02-26T10:22:47;16.91;59.76
73780;SHT30;62093;37.614;15.072;2024-02-26T10:25:13;16.88;59.68
73780;SHT30;62093;37.614;15.072;2024-02-26T10:27:42;16.93;59.40
73780;SHT30;62093;37.614;15.072;2024-02-26T10:30:22;16.91;59.55
73780;SHT30;62093;37.614;15.072;2024-02-26T10:32:51;16.95;59.68
73780;SHT30;62093;37.614;15.072;2024-02-26T10:35:18;16.99;59.60
73780;SHT30;62093;37.614;15.072;2024-02-26T10:37:46;16.97;59.41
73780;SHT30;62093;37.614;15.072;2024-02-26T10:40:13;16.97;59.57
73780;SHT30;62093;37.614;15.072;2024-02-26T10:42:40;17.00;59.25
73780;SHT30;62093;37.614;15.072;2024-02-26T10:45:07;16.97;59.61
73780;SHT30;62093;37.614;15.072;2024-02-26T10:47:38;16.97;59.71
73780;SHT30;62093;37.614;15.072;2024-02-26T10:50:05;16.97;59.66
73780;SHT30;62093;37.614;15.072;2024-02-26T10:52:35;16.99;59.24
73780;SHT30;62093;37.614;15.072;2024-02-26T10:55:03;16.97;59.53
73780;SHT30;62093;37.614;15.072;2024-02-26T10:57:38;17.00;59.16
73780;SHT30;62093;37.614;15.072;2024-02-26T11:00:06;16.95;59.38
73780;SHT30;62093;37.614;15.072;2024-02-26T11:02:33;16.95;59.45
73780;SHT30;62093;37.614;15.072;2024-02-26T11:05:02;16.95;59.14
73780;SHT30;62093;37.614;15.072;2024-02-26T11:07:34;16.97;59.59
73780;SHT30;62093;37.614;15.072;2024-02-26T11:10:05;16.99;59.57
73780;SHT30;62093;37.614;15.072;2024-02-26T11:12:32;17.00;59.63
73780;SHT30;62093;37.614;15.072;2024-02-26T11:15:01;17.03;59.37
73780;SHT30;62093;37.614;15.072;2024-02-26T11:17:28;16.99;59.18
73780;SHT30;62093;37.614;15.072;2024-02-26T11:19:59;17.03;59.16
73780;SHT30;62093;37.614;15.072;2024-02-26T11:22:25;17.00;59.34
73780;SHT30;62093;37.614;15.072;2024-02-26T11:24:56;17.00;58.90
73780;SHT30;62093;37.614;15.072;2024-02-26T11:27:30;17.00;59.18
73780;SHT30;62093;37.614;15.072;2024-02-26T11:29:59;17.01;58.82
73780;SHT30;62093;37.614;15.072;2024-02-26T11:32:29;17.00;59.23
73780;SHT30;62093;37.614;15.072;2024-02-26T11:34:56;17.00;59.01
73780;SHT30;62093;37.614;15.072;2024-02-26T11:37:24;16.99;59.17
73780;SHT30;62093;37.614;15.072;2024-02-26T11:39:52;17.00;59.09
73780;SHT30;62093;37.614;15.072;2024-02-26T11:42:23;17.06;59.15
73780;SHT30;62093;37.614;15.072;2024-02-26T11:44:50;17.07;59.00
73780;SHT30;62093;37.614;15.072;2024-02-26T11:47:23;17.08;58.99
73780;SHT30;62093;37.614;15.072;2024-02-26T11:49:49;17.08;59.11
73780;SHT30;62093;37.614;15.072;2024-02-26T11:52:15;17.10;58.99
73780;SHT30;62093;37.614;15.072;2024-02-26T11:54:47;17.10;58.98
73780;SHT30;62093;37.614;15.072;2024-02-26T11:57:29;17.08;59.06
73780;SHT30;62093;37.614;15.072;2024-02-26T12:00:10;17.11;58.70
73780;SHT30;62093;37.614;15.072;2024-02-26T12:02:38;17.10;58.81
73780;SHT30;62093;37.614;15.072;2024-02-26T12:05:14;17.14;59.11
73780;SHT30;62093;37.614;15.072;2024-02-26T12:07:48;17.11;59.09
73780;SHT30;62093;37.614;15.072;2024-02-26T12:10:28;17.11;58.93
73780;SHT30;62093;37.614;15.072;2024-02-26T12:13:11;17.13;58.38
73780;SHT30;62093;37.614;15.072;2024-02-26T12:15:44;17.11;58.92
73780;SHT30;62093;37.614;15.072;2024-02-26T12:18:18;17.08;58.98
73780;SHT30;62093;37.614;15.072;2024-02-26T12:20:44;17.11;58.87
73780;SHT30;62093;37.614;15.072;2024-02-26T12:23:16;17.10;58.94
73780;SHT30;62093;37.614;15.072;2024-02-26T12:25:45;17.11;58.90
73780;SHT30;62093;37.614;15.072;2024-02-26T12:28:14;17.10;58.59
73780;SHT30;62093;37.614;15.072;2024-02-26T12:30:40;17.10;58.71
73780;SHT30;62093;37.614;15.072;2024-02-26T12:33:06;17.07;58.86
73780;SHT30;62093;37.614;15.072;2024-02-26T12:35:35;17.08;58.85
73780;SHT30;62093;37.614;15.072;2024-02-26T12:38:01;17.11;58.96
73780;SHT30;62093;37.614;15.072;2024-02-26T12:40:29;17.08;59.07
73780;SHT30;62093;37.614;15.072;2024-02-26T12:42:55;17.08;59.03
73780;SHT30;62093;37.614;15.072;2024-02-26T12:45:22;17.10;58.91
73780;SHT30;62093;37.614;15.072;2024-02-26T12:47:48;17.08;58.80
73780;SHT30;62093;37.614;15.072;2024-02-26T12:50:17;17.10;58.93
73780;SHT30;62093;37.614;15.072;2024-02-26T12:52:45;17.08;59.14
73780;SHT30;62093;37.614;15.072;2024-02-26T12:55:14;17.13;59.14
73780;SHT30;62093;37.614;15.072;2024-02-26T12:57:41;17.11;59.07
73780;SHT30;62093;37.614;15.072;2024-02-26T13:00:12;17.07;58.56
73780;SHT30;62093;37.614;15.072;2024-02-26T13:02:40;17.07;58.85
73780;SHT30;62093;37.614;15.072;2024-02-26T13:05:11;17.08;58.52
73780;SHT30;62093;37.614;15.072;2024-02-26T13:07:45;17.10;58.77
73780;SHT30;62093;37.614;15.072;2024-02-26T13:10:13;17.11;58.56
73780;SHT30;62093;37.614;15.072;2024-02-26T13:12:44;17.08;58.79
73780;SHT30;62093;37.614;15.072;2024-02-26T13:15:15;17.10;58.69
73780;SHT30;62093;37.614;15.072;2024-02-26T13:17:42;17.08;58.14
73780;SHT30;62093;37.614;15.072;2024-02-26T13:20:09;17.10;58.12
73780;SHT30;62093;37.614;15.072;2024-02-26T13:22:38;17.14;58.65
73780;SHT30;62093;37.614;15.072;2024-02-26T13:25:05;17.23;58.33
73780;SHT30;62093;37.614;15.072;2024-02-26T13:27:33;17.23;58.61
73780;SHT30;62093;37.614;15.072;2024-02-26T13:30:10;17.21;58.72
73780;SHT30;62093;37.614;15.072;2024-02-26T13:32:38;17.17;58.62
73780;SHT30;62093;37.614;15.072;2024-02-26T13:35:11;17.15;58.56
73780;SHT30;62093;37.614;15.072;2024-02-26T13:37:39;17.18;58.69
73780;SHT30;62093;37.614;15.072;2024-02-26T13:40:09;17.17;58.37
73780;SHT30;62093;37.614;15.072;2024-02-26T13:42:39;17.20;58.73
73780;SHT30;62093;37.614;15.072;2024-02-26T13:45:05;17.25;58.82
73780;SHT30;62093;37.614;15.072;2024-02-26T13:47:35;17.34;58.58
73780;SHT30;62093;37.614;15.072;2024-02-26T13:50:01;17.41;58.60
73780;SHT30;62093;37.614;15.072;2024-02-26T13:52:27;17.55;58.06
73780;SHT30;62093;37.614;15.072;2024-02-26T13:54:53;17.61;57.96
73780;SHT30;62093;37.614;15.072;2024-02-26T13:57:19;17.72;57.74
73780;SHT30;62093;37.614;15.072;2024-02-26T13:59:46;17.86;57.35
73780;SHT30;62093;37.614;15.072;2024-02-26T14:02:12;17.93;57.04
73780;SHT30;62093;37.614;15.072;2024-02-26T14:04:38;17.99;56.96
73780;SHT30;62093;37.614;15.072;2024-02-26T14:07:05;18.04;56.86
73780;SHT30;62093;37.614;15.072;2024-02-26T14:09:31;18.00;56.93
73780;SHT30;62093;37.614;15.072;2024-02-26T14:11:58;17.99;56.94
73780;SHT30;62093;37.614;15.072;2024-02-26T14:14:24;17.95;56.99
73780;SHT30;62093;37.614;15.072;2024-02-26T14:16:51;17.95;57.24
73780;SHT30;62093;37.614;15.072;2024-02-26T14:19:18;17.90;57.27
73780;SHT30;62093;37.614;15.072;2024-02-26T14:21:44;17.90;57.40
73780;SHT30;62093;37.614;15.072;2024-02-26T14:24:10;17.92;57.36
73780;SHT30;62093;37.614;15.072;2024-02-26T14:26:37;17.97;57.41
73780;SHT30;62093;37.614;15.072;2024-02-26T14:29:03;17.99;57.21
73780;SHT30;62093;37.614;15.072;2024-02-26T14:31:29;18.06;57.16
73780;SHT30;62093;37.614;15.072;2024-02-26T14:33:55;18.12;57.02
73780;SHT30;62093;37.614;15.072;2024-02-26T14:36:22;18.20;56.84
73780;SHT30;62093;37.614;15.072;2024-02-26T14:38:49;18.23;56.77
73780;SHT30;62093;37.614;15.072;2024-02-26T14:41:16;18.30;56.66
73780;SHT30;62093;37.614;15.072;2024-02-26T14:43:42;18.33;56.74
73780;SHT30;62093;37.614;15.072;2024-02-26T14:46:08;18.34;56.63
73780;SHT30;62093;37.614;15.072;2024-02-26T14:48:34;18.34;56.64
73780;SHT30;62093;37.614;15.072;2024-02-26T14:51:00;18.41;56.58
73780;SHT30;62093;37.614;15.072;2024-02-26T14:53:27;18.44;56.47
73780;SHT30;62093;37.614;15.072;2024-02-26T14:55:52;18.50;56.44
73780;SHT30;62093;37.614;15.072;2024-02-26T14:58:18;18.51;56.26
73780;SHT30;62093;37.614;15.072;2024-02-26T15:00:45;18.58;56.26
73780;SHT30;62093;37.614;15.072;2024-02-26T15:03:11;18.58;56.26
73780;SHT30;62093;37.614;15.072;2024-02-26T15:05:37;18.55;56.36
73780;SHT30;62093;37.614;15.072;2024-02-26T15:08:03;18.63;56.22
73780;SHT30;62093;37.614;15.072;2024-02-26T15:10:29;18.67;56.21
73780;SHT30;62093;37.614;15.072;2024-02-26T15:12:55;18.78;55.91
73780;SHT30;62093;37.614;15.072;2024-02-26T15:15:22;18.74;56.02